createdAt,value
2019-02-02T00:00:41.106Z,983.88
2019-02-02T00:01:41.152Z,983.93
2019-02-02T00:02:41.077Z,983.92
2019-02-02T00:03:41.070Z,983.96
2019-02-02T00:04:41.059Z,983.96
2019-02-02T00:05:41.046Z,983.98
2019-02-02T00:06:41.033Z,983.97
2019-02-02T00:07:41.073Z,983.90
2019-02-02T00:08:41.015Z,983.91
2019-02-02T00:09:41.003Z,983.88
2019-02-02T00:10:40.996Z,983.91
2019-02-02T00:11:40.980Z,983.88
2019-02-02T00:12:40.968Z,983.88
2019-02-02T00:13:41.016Z,983.93
2019-02-02T00:14:40.947Z,983.89
2019-02-02T00:15:40.936Z,983.90
2019-02-02T00:16:40.927Z,983.91
2019-02-02T00:17:40.974Z,983.89
2019-02-02T00:18:40.904Z,983.91
2019-02-02T00:19:40.900Z,983.89
2019-02-02T00:20:40.883Z,983.92
2019-02-02T00:21:40.872Z,983.90
2019-02-02T00:22:40.862Z,983.87
2019-02-02T00:23:40.918Z,983.89
2019-02-02T00:24:40.881Z,983.86
2019-02-02T00:25:40.828Z,983.90
2019-02-02T00:26:40.818Z,983.91
2019-02-02T00:27:41.784Z,983.92
2019-02-02T00:28:40.849Z,983.93
2019-02-02T00:29:40.785Z,983.92
2019-02-02T00:30:40.774Z,983.92
2019-02-02T00:31:40.798Z,983.93
2019-02-02T00:32:40.754Z,983.93
2019-02-02T00:33:40.743Z,983.83
2019-02-02T00:34:40.783Z,983.89
2019-02-02T00:35:40.728Z,983.92
2019-02-02T00:36:40.713Z,983.90
2019-02-02T00:37:40.699Z,983.87
2019-02-02T00:38:40.691Z,983.92
2019-02-02T00:39:40.684Z,983.91
2019-02-02T00:40:40.725Z,983.94
2019-02-02T00:41:40.656Z,983.91
2019-02-02T00:42:40.681Z,983.93
2019-02-02T00:43:40.637Z,983.88
2019-02-02T00:44:40.624Z,983.92
2019-02-02T00:45:40.615Z,983.93
2019-02-02T00:46:40.645Z,983.96
2019-02-02T00:47:40.591Z,983.91
2019-02-02T00:48:40.589Z,983.92
2019-02-02T00:49:40.590Z,983.87
2019-02-02T00:50:40.562Z,983.92
2019-02-02T00:51:40.549Z,983.95
2019-02-02T00:52:40.587Z,983.97
2019-02-02T00:53:40.528Z,983.98
2019-02-02T00:54:40.517Z,984.02
2019-02-02T00:55:40.505Z,984.04
2019-02-02T00:56:40.538Z,984.03
2019-02-02T00:57:40.493Z,984.04
2019-02-02T00:58:40.474Z,984.02
2019-02-02T00:59:40.582Z,984.00
2019-02-02T01:00:40.465Z,983.98
2019-02-02T01:01:40.492Z,983.97
2019-02-02T01:02:40.430Z,983.93
2019-02-02T01:03:40.420Z,983.99
2019-02-02T01:04:40.409Z,984.00
2019-02-02T01:05:40.396Z,984.02
2019-02-02T01:06:40.413Z,984.04
2019-02-02T01:07:40.430Z,984.00
2019-02-02T01:08:40.365Z,984.02
2019-02-02T01:09:40.355Z,984.05
2019-02-02T01:10:40.413Z,984.03
2019-02-02T01:11:40.334Z,984.08
2019-02-02T01:12:40.326Z,983.99
2019-02-02T01:13:40.356Z,984.01
2019-02-02T01:14:40.304Z,984.04
2019-02-02T01:15:40.348Z,984.03
2019-02-02T01:16:40.289Z,984.05
2019-02-02T01:17:40.269Z,984.06
2019-02-02T01:18:40.259Z,984.04
2019-02-02T01:19:40.246Z,984.06
2019-02-02T01:20:40.236Z,984.10
2019-02-02T01:21:40.264Z,984.08
2019-02-02T01:22:40.223Z,984.04
2019-02-02T01:23:40.205Z,984.07
2019-02-02T01:24:40.232Z,984.09
2019-02-02T01:25:40.183Z,984.07
2019-02-02T01:26:40.173Z,984.08
2019-02-02T01:27:40.159Z,984.08
2019-02-02T01:28:40.149Z,984.09
2019-02-02T01:29:40.220Z,984.12
2019-02-02T01:30:40.127Z,984.09
2019-02-02T01:31:40.116Z,984.09
2019-02-02T01:32:40.109Z,984.08
2019-02-02T01:33:40.096Z,984.10
2019-02-02T01:34:40.088Z,984.05
2019-02-02T01:35:40.115Z,984.10
2019-02-02T01:36:40.101Z,984.07
2019-02-02T01:37:40.095Z,984.06
2019-02-02T01:38:40.041Z,984.13
2019-02-02T01:39:40.032Z,984.07
2019-02-02T01:40:40.020Z,984.12
2019-02-02T01:41:40.011Z,984.13
2019-02-02T01:42:39.997Z,984.11
2019-02-02T01:43:40.050Z,984.10
2019-02-02T01:44:39.976Z,984.15
2019-02-02T01:45:39.964Z,984.14
2019-02-02T01:46:39.970Z,984.15
2019-02-02T01:47:39.943Z,984.18
2019-02-02T01:48:39.943Z,984.20
2019-02-02T01:49:39.962Z,984.20
2019-02-02T01:50:39.914Z,984.19
2019-02-02T01:51:39.900Z,984.25
2019-02-02T01:52:39.895Z,984.20
2019-02-02T01:53:39.881Z,984.21
2019-02-02T01:54:39.871Z,984.21
2019-02-02T01:55:39.900Z,984.24
2019-02-02T01:56:39.849Z,984.23
2019-02-02T01:57:39.837Z,984.24
2019-02-02T01:58:39.828Z,984.19
2019-02-02T01:59:39.823Z,984.27
2019-02-02T02:00:39.815Z,984.29
2019-02-02T02:01:41.731Z,984.38
2019-02-02T02:02:39.795Z,984.31
2019-02-02T02:03:39.772Z,984.34
2019-02-02T02:04:39.784Z,984.30
2019-02-02T02:05:39.751Z,984.31
2019-02-02T02:06:39.740Z,984.31
2019-02-02T02:07:39.775Z,984.29
2019-02-02T02:08:39.719Z,984.27
2019-02-02T02:09:39.713Z,984.27
2019-02-02T02:10:39.698Z,984.25
2019-02-02T02:11:39.691Z,984.25
2019-02-02T02:12:39.822Z,984.29
2019-02-02T02:13:39.665Z,984.26
2019-02-02T02:14:39.653Z,984.23
2019-02-02T02:15:39.643Z,984.30
2019-02-02T02:16:39.632Z,984.31
2019-02-02T02:17:39.621Z,984.29
2019-02-02T02:18:40.000Z,984.29
2019-02-02T02:19:39.605Z,984.32
2019-02-02T02:20:39.617Z,984.27
2019-02-02T02:21:39.618Z,984.28
2019-02-02T02:22:41.246Z,984.26
2019-02-02T02:23:39.555Z,984.27
2019-02-02T02:24:39.545Z,984.24
2019-02-02T02:25:39.539Z,984.23
2019-02-02T02:26:39.563Z,984.27
2019-02-02T02:27:39.514Z,984.24
2019-02-02T02:28:39.503Z,984.29
2019-02-02T02:29:39.552Z,984.33
2019-02-02T02:30:39.480Z,984.28
2019-02-02T02:31:39.469Z,984.36
2019-02-02T02:32:39.462Z,984.37
2019-02-02T02:33:39.455Z,984.37
2019-02-02T02:34:39.482Z,984.38
2019-02-02T02:35:39.427Z,984.38
2019-02-02T02:36:39.417Z,984.40
2019-02-02T02:37:39.411Z,984.39
2019-02-02T02:38:39.400Z,984.40
2019-02-02T02:39:39.399Z,984.43
2019-02-02T02:40:39.414Z,984.46
2019-02-02T02:41:39.408Z,984.44
2019-02-02T02:42:39.356Z,984.45
2019-02-02T02:43:39.341Z,984.44
2019-02-02T02:44:39.332Z,984.46
2019-02-02T02:45:39.320Z,984.50
2019-02-02T02:46:39.311Z,984.53
2019-02-02T02:47:39.357Z,984.56
2019-02-02T02:48:39.308Z,984.61
2019-02-02T02:49:39.275Z,984.60
2019-02-02T02:50:39.276Z,984.63
2019-02-02T02:51:39.259Z,984.62
2019-02-02T02:52:39.245Z,984.65
2019-02-02T02:53:39.287Z,984.66
2019-02-02T02:54:39.222Z,984.68
2019-02-02T02:55:39.213Z,984.68
2019-02-02T02:56:39.201Z,984.72
2019-02-02T02:57:39.194Z,984.66
2019-02-02T02:58:41.565Z,984.68
2019-02-02T02:59:39.168Z,984.63
2019-02-02T03:00:39.159Z,984.68
2019-02-02T03:01:39.153Z,984.64
2019-02-02T03:02:39.190Z,984.60
2019-02-02T03:03:39.126Z,984.58
2019-02-02T03:04:39.114Z,984.56
2019-02-02T03:05:39.105Z,984.57
2019-02-02T03:06:39.094Z,984.57
2019-02-02T03:07:39.082Z,984.57
2019-02-02T03:08:39.113Z,984.58
2019-02-02T03:09:39.064Z,984.56
2019-02-02T03:10:39.053Z,984.54
2019-02-02T03:11:39.040Z,984.52
2019-02-02T03:12:39.072Z,984.51
2019-02-02T03:13:39.022Z,984.52
2019-02-02T03:14:39.062Z,984.48
2019-02-02T03:15:38.995Z,984.53
2019-02-02T03:16:38.988Z,984.50
2019-02-02T03:17:38.975Z,984.49
2019-02-02T03:18:38.980Z,984.51
2019-02-02T03:19:38.956Z,984.48
2019-02-02T03:20:38.993Z,984.46
2019-02-02T03:21:38.932Z,984.45
2019-02-02T03:22:38.920Z,984.48
2019-02-02T03:23:38.912Z,984.51
2019-02-02T03:24:38.902Z,984.52
2019-02-02T03:25:38.908Z,984.50
2019-02-02T03:26:38.930Z,984.57
2019-02-02T03:27:38.869Z,984.53
2019-02-02T03:28:38.856Z,984.55
2019-02-02T03:29:38.891Z,984.56
2019-02-02T03:30:38.839Z,984.58
2019-02-02T03:31:38.829Z,984.58
2019-02-02T03:32:38.815Z,984.57
2019-02-02T03:33:38.816Z,984.56
2019-02-02T03:34:38.844Z,984.60
2019-02-02T03:35:38.781Z,984.54
2019-02-02T03:36:38.771Z,984.60
2019-02-02T03:37:38.772Z,984.57
2019-02-02T03:38:38.750Z,984.63
2019-02-02T03:39:38.743Z,984.60
2019-02-02T03:40:38.773Z,984.55
2019-02-02T03:41:38.715Z,984.55
2019-02-02T03:42:38.707Z,984.59
2019-02-02T03:43:38.696Z,984.63
2019-02-02T03:44:38.684Z,984.61
2019-02-02T03:45:40.909Z,984.69
2019-02-02T03:46:38.704Z,984.66
2019-02-02T03:47:38.656Z,984.69
2019-02-02T03:48:38.642Z,984.70
2019-02-02T03:49:38.669Z,984.70
2019-02-02T03:50:38.619Z,984.70
2019-02-02T03:51:38.658Z,984.75
2019-02-02T03:52:38.600Z,984.70
2019-02-02T03:53:41.242Z,984.72
2019-02-02T03:54:38.578Z,984.75
2019-02-02T03:55:38.565Z,984.75
2019-02-02T03:56:38.605Z,984.73
2019-02-02T03:57:38.544Z,984.75
2019-02-02T03:58:38.533Z,984.78
2019-02-02T03:59:38.566Z,984.78
2019-02-02T04:00:38.527Z,984.84
2019-02-02T04:01:38.517Z,984.81
2019-02-02T04:02:38.490Z,984.79
2019-02-02T04:03:38.479Z,984.78
2019-02-02T04:04:38.509Z,984.77
2019-02-02T04:05:38.501Z,984.78
2019-02-02T04:06:38.678Z,984.75
2019-02-02T04:07:38.435Z,984.74
2019-02-02T04:08:38.471Z,984.77
2019-02-02T04:09:38.418Z,984.79
2019-02-02T04:10:38.413Z,984.77
2019-02-02T04:11:38.401Z,984.76
2019-02-02T04:12:38.384Z,984.75
2019-02-02T04:13:38.411Z,984.79
2019-02-02T04:14:38.363Z,984.78
2019-02-02T04:15:38.353Z,984.76
2019-02-02T04:16:38.375Z,984.78
2019-02-02T04:17:38.370Z,984.78
2019-02-02T04:18:38.323Z,984.79
2019-02-02T04:19:38.308Z,984.80
2019-02-02T04:20:38.296Z,984.82
2019-02-02T04:21:38.326Z,984.82
2019-02-02T04:22:38.277Z,984.79
2019-02-02T04:23:38.315Z,984.82
2019-02-02T04:24:38.256Z,984.82
2019-02-02T04:25:38.242Z,984.84
2019-02-02T04:26:38.232Z,984.85
2019-02-02T04:27:38.223Z,984.86
2019-02-02T04:28:38.212Z,984.89
2019-02-02T04:29:38.243Z,984.92
2019-02-02T04:30:38.188Z,984.88
2019-02-02T04:31:38.178Z,984.92
2019-02-02T04:32:38.336Z,984.91
2019-02-02T04:33:38.156Z,984.96
2019-02-02T04:34:38.147Z,984.97
2019-02-02T04:35:38.281Z,984.99
2019-02-02T04:36:38.125Z,984.95
2019-02-02T04:37:38.426Z,984.99
2019-02-02T04:38:38.103Z,985.00
2019-02-02T04:39:38.139Z,984.96
2019-02-02T04:40:38.123Z,985.00
2019-02-02T04:41:38.072Z,984.98
2019-02-02T04:42:38.162Z,985.03
2019-02-02T04:43:38.049Z,984.99
2019-02-02T04:44:38.039Z,985.05
2019-02-02T04:45:38.029Z,985.03
2019-02-02T04:46:38.056Z,985.05
2019-02-02T04:47:38.005Z,985.04
2019-02-02T04:48:38.035Z,985.03
2019-02-02T04:49:37.987Z,985.03
2019-02-02T04:50:37.973Z,985.01
2019-02-02T04:51:37.965Z,985.06
2019-02-02T04:52:37.952Z,985.05
2019-02-02T04:53:37.950Z,985.04
2019-02-02T04:54:37.974Z,985.04
2019-02-02T04:55:37.919Z,985.07
2019-02-02T04:56:37.909Z,985.05
2019-02-02T04:57:37.900Z,985.06
2019-02-02T04:58:37.951Z,985.05
2019-02-02T04:59:37.876Z,985.11
2019-02-02T05:00:37.878Z,985.12
2019-02-02T05:01:37.859Z,985.10
2019-02-02T05:02:37.852Z,985.10
2019-02-02T05:03:37.834Z,985.09
2019-02-02T05:04:37.866Z,985.08
2019-02-02T05:05:37.813Z,985.07
2019-02-02T05:06:37.803Z,985.13
2019-02-02T05:07:37.791Z,985.12
2019-02-02T05:08:37.780Z,985.10
2019-02-02T05:09:37.812Z,985.13
2019-02-02T05:10:37.769Z,985.10
2019-02-02T05:11:37.750Z,985.17
2019-02-02T05:12:37.738Z,985.15
2019-02-02T05:13:37.726Z,985.12
2019-02-02T05:14:37.769Z,985.16
2019-02-02T05:15:37.706Z,985.14
2019-02-02T05:16:37.698Z,985.14
2019-02-02T05:17:37.683Z,985.17
2019-02-02T05:18:37.672Z,985.14
2019-02-02T05:19:37.663Z,985.16
2019-02-02T05:20:37.693Z,985.18
2019-02-02T05:21:37.641Z,985.17
2019-02-02T05:22:37.668Z,985.21
2019-02-02T05:23:37.674Z,985.22
2019-02-02T05:24:37.609Z,985.23
2019-02-02T05:25:37.600Z,985.22
2019-02-02T05:26:37.588Z,985.22
2019-02-02T05:27:37.578Z,985.22
2019-02-02T05:28:37.573Z,985.24
2019-02-02T05:29:41.436Z,985.21
2019-02-02T05:30:37.547Z,985.23
2019-02-02T05:31:37.547Z,985.22
2019-02-02T05:32:37.524Z,985.23
2019-02-02T05:33:37.513Z,985.25
2019-02-02T05:34:37.545Z,985.20
2019-02-02T05:35:37.535Z,985.22
2019-02-02T05:36:37.479Z,985.25
2019-02-02T05:37:37.513Z,985.24
2019-02-02T05:38:37.458Z,985.26
2019-02-02T05:39:37.448Z,985.23
2019-02-02T05:40:37.438Z,985.22
2019-02-02T05:41:37.447Z,985.25
2019-02-02T05:42:37.416Z,985.29
2019-02-02T05:43:37.449Z,985.25
2019-02-02T05:44:37.436Z,985.28
2019-02-02T05:45:37.418Z,985.28
2019-02-02T05:46:37.401Z,985.30
2019-02-02T05:47:37.363Z,985.32
2019-02-02T05:48:37.354Z,985.28
2019-02-02T05:49:37.339Z,985.30
2019-02-02T05:50:37.370Z,985.27
2019-02-02T05:51:37.325Z,985.25
2019-02-02T05:52:37.310Z,985.28
2019-02-02T05:53:37.297Z,985.32
2019-02-02T05:54:37.338Z,985.31
2019-02-02T05:55:37.274Z,985.30
2019-02-02T05:56:37.264Z,985.33
2019-02-02T05:57:37.255Z,985.35
2019-02-02T05:58:37.244Z,985.40
2019-02-02T05:59:37.263Z,985.41
2019-02-02T06:00:37.271Z,985.47
2019-02-02T06:01:37.213Z,985.46
2019-02-02T06:02:37.201Z,985.46
2019-02-02T06:03:37.209Z,985.47
2019-02-02T06:04:37.193Z,985.47
2019-02-02T06:05:37.170Z,985.49
2019-02-02T06:06:37.214Z,985.44
2019-02-02T06:07:37.204Z,985.40
2019-02-02T06:08:37.141Z,985.44
2019-02-02T06:09:37.147Z,985.46
2019-02-02T06:10:37.116Z,985.47
2019-02-02T06:11:37.103Z,985.50
2019-02-02T06:12:37.158Z,985.50
2019-02-02T06:13:37.082Z,985.57
2019-02-02T06:14:37.080Z,985.57
2019-02-02T06:15:37.062Z,985.58
2019-02-02T06:16:37.051Z,985.56
2019-02-02T06:17:37.046Z,985.56
2019-02-02T06:18:37.073Z,985.57
2019-02-02T06:19:37.125Z,985.58
2019-02-02T06:20:37.014Z,985.57
2019-02-02T06:21:36.999Z,985.56
2019-02-02T06:22:37.028Z,985.64
2019-02-02T06:23:36.981Z,985.65
2019-02-02T06:24:36.967Z,985.67
2019-02-02T06:25:37.013Z,985.70
2019-02-02T06:26:36.942Z,985.71
2019-02-02T06:27:36.947Z,985.74
2019-02-02T06:28:36.937Z,985.77
2019-02-02T06:29:36.956Z,985.79
2019-02-02T06:30:36.918Z,985.78
2019-02-02T06:31:36.908Z,985.72
2019-02-02T06:32:36.888Z,985.81
2019-02-02T06:33:36.867Z,985.75
2019-02-02T06:34:36.855Z,985.83
2019-02-02T06:35:36.912Z,985.81
2019-02-02T06:36:36.834Z,985.83
2019-02-02T06:37:36.845Z,985.82
2019-02-02T06:38:36.814Z,985.80
2019-02-02T06:39:36.860Z,985.81
2019-02-02T06:40:36.793Z,985.77
2019-02-02T06:41:36.799Z,985.84
2019-02-02T06:42:36.773Z,985.89
2019-02-02T06:43:36.760Z,985.88
2019-02-02T06:44:36.761Z,985.91
2019-02-02T06:45:36.816Z,985.95
2019-02-02T06:46:43.764Z,985.95
2019-02-02T06:47:37.721Z,986.02
2019-02-02T06:48:36.750Z,986.00
2019-02-02T06:49:36.699Z,986.04
2019-02-02T06:50:36.688Z,986.07
2019-02-02T06:51:36.682Z,986.04
2019-02-02T06:52:36.707Z,986.04
2019-02-02T06:53:36.650Z,986.10
2019-02-02T06:54:36.649Z,986.06
2019-02-02T06:55:36.632Z,986.08
2019-02-02T06:56:36.623Z,986.09
2019-02-02T06:57:36.656Z,986.12
2019-02-02T06:58:36.601Z,986.12
2019-02-02T06:59:36.628Z,986.16
2019-02-02T07:00:36.584Z,986.18
2019-02-02T07:01:36.567Z,986.19
2019-02-02T07:02:36.556Z,986.18
2019-02-02T07:03:36.544Z,986.21
2019-02-02T07:04:36.535Z,986.22
2019-02-02T07:05:36.574Z,986.24
2019-02-02T07:06:36.517Z,986.26
2019-02-02T07:07:36.511Z,986.25
2019-02-02T07:08:36.534Z,986.27
2019-02-02T07:09:36.546Z,986.29
2019-02-02T07:10:36.477Z,986.33
2019-02-02T07:11:36.460Z,986.36
2019-02-02T07:12:36.456Z,986.35
2019-02-02T07:13:36.439Z,986.43
2019-02-02T07:14:36.440Z,986.40
2019-02-02T07:15:36.461Z,986.39
2019-02-02T07:16:36.407Z,986.41
2019-02-02T07:17:36.399Z,986.39
2019-02-02T07:18:36.390Z,986.41
2019-02-02T07:19:36.372Z,986.37
2019-02-02T07:20:36.406Z,986.42
2019-02-02T07:21:36.348Z,986.39
2019-02-02T07:22:36.357Z,986.41
2019-02-02T07:23:36.378Z,986.45
2019-02-02T07:24:36.373Z,986.45
2019-02-02T07:25:36.316Z,986.48
2019-02-02T07:26:36.300Z,986.52
2019-02-02T07:27:36.288Z,986.51
2019-02-02T07:28:36.276Z,986.46
2019-02-02T07:29:36.323Z,986.50
2019-02-02T07:30:36.262Z,986.53
2019-02-02T07:31:36.246Z,986.49
2019-02-02T07:32:36.253Z,986.56
2019-02-02T07:33:36.224Z,986.56
2019-02-02T07:34:36.212Z,986.54
2019-02-02T07:35:36.241Z,986.57
2019-02-02T07:36:36.225Z,986.56
2019-02-02T07:37:36.178Z,986.59
2019-02-02T07:38:36.175Z,986.61
2019-02-02T07:39:36.163Z,986.61
2019-02-02T07:40:36.146Z,986.66
2019-02-02T07:41:36.187Z,986.63
2019-02-02T07:42:36.124Z,986.67
2019-02-02T07:43:36.118Z,986.69
2019-02-02T07:44:36.105Z,986.65
2019-02-02T07:45:36.093Z,986.74
2019-02-02T07:46:36.081Z,986.77
2019-02-02T07:47:36.152Z,986.77
2019-02-02T07:48:36.063Z,986.81
2019-02-02T07:49:36.051Z,986.83
2019-02-02T07:50:36.125Z,986.79
2019-02-02T07:51:36.027Z,986.83
2019-02-02T07:52:36.020Z,986.81
2019-02-02T07:53:36.012Z,986.87
2019-02-02T07:54:36.016Z,986.90
2019-02-02T07:55:35.987Z,986.89
2019-02-02T07:56:36.052Z,986.88
2019-02-02T07:57:35.962Z,986.92
2019-02-02T07:58:35.983Z,986.91
2019-02-02T07:59:35.953Z,986.92
2019-02-02T08:00:40.940Z,986.96
2019-02-02T08:01:36.921Z,986.99
2019-02-02T08:02:35.911Z,987.01
2019-02-02T08:03:35.908Z,987.00
2019-02-02T08:04:35.946Z,987.00
2019-02-02T08:05:35.894Z,987.03
2019-02-02T08:06:35.866Z,987.03
2019-02-02T08:07:35.872Z,987.06
2019-02-02T08:08:35.866Z,987.06
2019-02-02T08:09:35.835Z,987.09
2019-02-02T08:10:35.908Z,987.08
2019-02-02T08:11:35.815Z,987.12
2019-02-02T08:12:35.810Z,987.15
2019-02-02T08:13:35.800Z,987.13
2019-02-02T08:14:35.779Z,987.21
2019-02-02T08:15:35.785Z,987.22
2019-02-02T08:16:35.828Z,987.24
2019-02-02T08:17:35.754Z,987.20
2019-02-02T08:18:35.744Z,987.21
2019-02-02T08:19:35.730Z,987.19
2019-02-02T08:20:35.722Z,987.25
2019-02-02T08:21:35.704Z,987.25
2019-02-02T08:22:35.774Z,987.25
2019-02-02T08:23:35.687Z,987.26
2019-02-02T08:24:38.583Z,987.28
2019-02-02T08:25:35.667Z,987.31
2019-02-02T08:26:35.655Z,987.28
2019-02-02T08:27:35.647Z,987.25
2019-02-02T08:28:35.723Z,987.32
2019-02-02T08:29:35.621Z,987.32
2019-02-02T08:30:36.290Z,987.33
2019-02-02T08:31:35.600Z,987.29
2019-02-02T08:32:35.614Z,987.33
2019-02-02T08:33:35.580Z,987.31
2019-02-02T08:34:35.640Z,987.29
2019-02-02T08:35:35.574Z,987.32
2019-02-02T08:36:35.616Z,987.39
2019-02-02T08:37:35.537Z,987.38
2019-02-02T08:38:35.581Z,987.41
2019-02-02T08:39:35.512Z,987.40
2019-02-02T08:40:35.507Z,987.38
2019-02-02T08:41:35.502Z,987.41
2019-02-02T08:42:35.485Z,987.41
2019-02-02T08:43:35.535Z,987.44
2019-02-02T08:44:35.473Z,987.41
2019-02-02T08:45:35.451Z,987.44
2019-02-02T08:46:35.445Z,987.47
2019-02-02T08:47:35.427Z,987.48
2019-02-02T08:48:35.427Z,987.45
2019-02-02T08:49:35.521Z,987.49
2019-02-02T08:50:35.413Z,987.55
2019-02-02T08:51:35.395Z,987.54
2019-02-02T08:52:35.373Z,987.56
2019-02-02T08:53:35.504Z,987.56
2019-02-02T08:54:35.362Z,987.59
2019-02-02T08:55:35.361Z,987.58
2019-02-02T08:56:35.352Z,987.59
2019-02-02T08:57:35.406Z,987.65
2019-02-02T08:58:35.319Z,987.62
2019-02-02T08:59:35.299Z,987.68
2019-02-02T09:00:35.302Z,987.70
2019-02-02T09:01:35.286Z,987.69
2019-02-02T09:02:35.270Z,987.66
2019-02-02T09:03:35.301Z,987.68
2019-02-02T09:04:35.364Z,987.69
2019-02-02T09:05:35.232Z,987.71
2019-02-02T09:06:39.046Z,987.68
2019-02-02T09:07:38.202Z,987.69
2019-02-02T09:08:35.201Z,987.68
2019-02-02T09:09:35.199Z,987.64
2019-02-02T09:10:35.224Z,987.63
2019-02-02T09:11:35.165Z,987.65
2019-02-02T09:12:35.172Z,987.63
2019-02-02T09:13:36.823Z,987.68
2019-02-02T09:14:35.139Z,987.69
2019-02-02T09:15:35.164Z,987.71
2019-02-02T09:16:35.111Z,987.72
2019-02-02T09:17:35.108Z,987.73
2019-02-02T09:18:35.104Z,987.77
2019-02-02T09:19:35.143Z,987.77
2019-02-02T09:20:35.077Z,987.78
2019-02-02T09:21:35.064Z,987.78
2019-02-02T09:22:35.048Z,987.77
2019-02-02T09:23:35.039Z,987.77
2019-02-02T09:24:35.028Z,987.78
2019-02-02T09:25:35.067Z,987.79
2019-02-02T09:26:35.019Z,987.78
2019-02-02T09:27:35.000Z,987.79
2019-02-02T09:28:34.985Z,987.79
2019-02-02T09:29:34.974Z,987.78
2019-02-02T09:30:34.963Z,987.75
2019-02-02T09:31:35.016Z,987.76
2019-02-02T09:32:35.033Z,987.80
2019-02-02T09:33:34.932Z,987.78
2019-02-02T09:34:34.919Z,987.82
2019-02-02T09:35:34.908Z,987.80
2019-02-02T09:36:34.897Z,987.78
2019-02-02T09:37:34.901Z,987.83
2019-02-02T09:38:34.946Z,987.82
2019-02-02T09:39:34.863Z,987.85
2019-02-02T09:40:34.856Z,987.80
2019-02-02T09:41:34.843Z,987.84
2019-02-02T09:42:34.837Z,987.87
2019-02-02T09:43:34.832Z,987.91
2019-02-02T09:44:34.870Z,987.91
2019-02-02T09:45:34.799Z,987.92
2019-02-02T09:46:34.798Z,987.98
2019-02-02T09:47:34.787Z,987.98
2019-02-02T09:48:34.767Z,987.97
2019-02-02T09:49:34.807Z,987.99
2019-02-02T09:50:34.743Z,988.01
2019-02-02T09:51:34.776Z,988.01
2019-02-02T09:52:34.732Z,987.99
2019-02-02T09:53:34.711Z,988.07
2019-02-02T09:54:34.716Z,988.06
2019-02-02T09:55:34.751Z,988.05
2019-02-02T09:56:34.760Z,988.11
2019-02-02T09:57:36.862Z,988.09
2019-02-02T09:58:34.659Z,988.13
2019-02-02T09:59:34.660Z,988.16
2019-02-02T10:00:34.649Z,988.15
2019-02-02T10:01:34.639Z,988.14
2019-02-02T10:02:34.656Z,988.18
2019-02-02T10:03:34.605Z,988.21
2019-02-02T10:04:34.600Z,988.19
2019-02-02T10:05:34.588Z,988.20
2019-02-02T10:06:34.613Z,988.24
2019-02-02T10:07:34.630Z,988.20
2019-02-02T10:08:34.560Z,988.24
2019-02-02T10:09:34.538Z,988.19
2019-02-02T10:10:34.535Z,988.23
2019-02-02T10:11:34.533Z,988.24
2019-02-02T10:12:34.594Z,988.25
2019-02-02T10:13:34.513Z,988.25
2019-02-02T10:14:34.484Z,988.32
2019-02-02T10:15:34.478Z,988.33
2019-02-02T10:16:34.464Z,988.30
2019-02-02T10:17:34.505Z,988.31
2019-02-02T10:18:34.443Z,988.32
2019-02-02T10:19:34.441Z,988.31
2019-02-02T10:20:34.420Z,988.33
2019-02-02T10:21:34.410Z,988.38
2019-02-02T10:22:34.476Z,988.36
2019-02-02T10:23:34.387Z,988.44
2019-02-02T10:24:34.382Z,988.42
2019-02-02T10:25:34.391Z,988.42
2019-02-02T10:26:34.355Z,988.45
2019-02-02T10:27:34.368Z,988.43
2019-02-02T10:28:34.383Z,988.46
2019-02-02T10:29:34.322Z,988.43
2019-02-02T10:30:34.319Z,988.43
2019-02-02T10:31:39.827Z,988.46
2019-02-02T10:32:35.295Z,988.49
2019-02-02T10:33:34.358Z,988.49
2019-02-02T10:34:34.271Z,988.49
2019-02-02T10:35:34.271Z,988.53
2019-02-02T10:36:34.313Z,988.52
2019-02-02T10:37:34.235Z,988.53
2019-02-02T10:38:34.229Z,988.50
2019-02-02T10:39:34.298Z,988.58
2019-02-02T10:40:34.259Z,988.57
2019-02-02T10:41:34.193Z,988.57
2019-02-02T10:42:34.231Z,988.57
2019-02-02T10:43:34.170Z,988.61
2019-02-02T10:44:34.161Z,988.58
2019-02-02T10:45:34.154Z,988.59
2019-02-02T10:46:34.139Z,988.58
2019-02-02T10:47:34.134Z,988.60
2019-02-02T10:48:34.169Z,988.61
2019-02-02T10:49:34.113Z,988.60
2019-02-02T10:50:34.158Z,988.60
2019-02-02T10:51:34.093Z,988.62
2019-02-02T10:52:34.088Z,988.63
2019-02-02T10:53:34.120Z,988.64
2019-02-02T10:54:34.052Z,988.66
2019-02-02T10:55:34.044Z,988.62
2019-02-02T10:56:34.043Z,988.67
2019-02-02T10:57:34.059Z,988.72
2019-02-02T10:58:34.066Z,988.73
2019-02-02T10:59:33.995Z,988.76
2019-02-02T11:00:33.996Z,988.76
2019-02-02T11:01:33.978Z,988.77
2019-02-02T11:02:33.959Z,988.75
2019-02-02T11:03:33.954Z,988.82
2019-02-02T11:04:34.015Z,988.80
2019-02-02T11:05:34.059Z,988.81
2019-02-02T11:06:33.945Z,988.83
2019-02-02T11:07:34.003Z,988.84
2019-02-02T11:08:33.909Z,988.87
2019-02-02T11:09:33.925Z,988.89
2019-02-02T11:10:33.995Z,988.87
2019-02-02T11:11:33.887Z,988.85
2019-02-02T11:12:33.885Z,988.89
2019-02-02T11:13:34.021Z,988.92
2019-02-02T11:14:33.938Z,988.95
2019-02-02T11:15:33.916Z,988.98
2019-02-02T11:16:33.813Z,989.00
2019-02-02T11:17:33.979Z,989.01
2019-02-02T11:18:33.803Z,989.03
2019-02-02T11:19:34.000Z,989.05
2019-02-02T11:20:33.869Z,989.02
2019-02-02T11:21:33.797Z,989.04
2019-02-02T11:22:33.787Z,989.02
2019-02-02T11:23:33.778Z,989.04
2019-02-02T11:24:33.813Z,989.09
2019-02-02T11:25:33.851Z,989.10
2019-02-02T11:26:33.729Z,989.09
2019-02-02T11:27:33.737Z,989.12
2019-02-02T11:28:33.708Z,989.11
2019-02-02T11:29:33.785Z,989.16
2019-02-02T11:30:33.720Z,989.16
2019-02-02T11:31:33.651Z,989.18
2019-02-02T11:32:33.643Z,989.20
2019-02-02T11:33:33.680Z,989.19
2019-02-02T11:34:33.617Z,989.25
2019-02-02T11:35:33.611Z,989.28
2019-02-02T11:36:33.591Z,989.21
2019-02-02T11:37:33.579Z,989.28
2019-02-02T11:38:33.635Z,989.30
2019-02-02T11:39:33.595Z,989.29
2019-02-02T11:40:33.572Z,989.28
2019-02-02T11:41:33.538Z,989.29
2019-02-02T11:42:33.532Z,989.33
2019-02-02T11:43:33.520Z,989.36
2019-02-02T11:44:33.568Z,989.36
2019-02-02T11:45:33.504Z,989.37
2019-02-02T11:46:33.485Z,989.41
2019-02-02T11:47:33.476Z,989.39
2019-02-02T11:48:33.507Z,989.35
2019-02-02T11:49:33.456Z,989.39
2019-02-02T11:50:33.453Z,989.43
2019-02-02T11:51:33.427Z,989.44
2019-02-02T11:52:33.435Z,989.48
2019-02-02T11:53:33.449Z,989.48
2019-02-02T11:54:33.396Z,989.54
2019-02-02T11:55:33.384Z,989.54
2019-02-02T11:56:33.378Z,989.53
2019-02-02T11:57:33.374Z,989.58
2019-02-02T11:58:33.426Z,989.57
2019-02-02T11:59:33.341Z,989.61
2019-02-02T12:00:33.452Z,989.65
2019-02-02T12:01:33.318Z,989.66
2019-02-02T12:02:33.314Z,989.72
2019-02-02T12:03:33.309Z,989.73
2019-02-02T12:04:33.288Z,989.75
2019-02-02T12:05:33.279Z,989.78
2019-02-02T12:06:33.325Z,989.79
2019-02-02T12:07:33.312Z,989.80
2019-02-02T12:08:33.253Z,989.79
2019-02-02T12:09:33.299Z,989.78
2019-02-02T12:10:33.229Z,989.82
2019-02-02T12:11:33.223Z,989.81
2019-02-02T12:12:33.201Z,989.81
2019-02-02T12:13:33.284Z,989.79
2019-02-02T12:14:33.189Z,989.78
2019-02-02T12:15:33.172Z,989.81
2019-02-02T12:16:33.163Z,989.74
2019-02-02T12:17:33.241Z,989.73
2019-02-02T12:18:33.133Z,989.74
2019-02-02T12:19:33.196Z,989.69
2019-02-02T12:20:33.721Z,989.75
2019-02-02T12:21:33.104Z,989.73
2019-02-02T12:22:33.120Z,989.73
2019-02-02T12:23:33.083Z,989.76
2019-02-02T12:24:33.077Z,989.74
2019-02-02T12:25:33.126Z,989.76
2019-02-02T12:26:33.051Z,989.73
2019-02-02T12:27:33.041Z,989.70
2019-02-02T12:28:33.098Z,989.78